sensor_id;sensor_type;location;lat;lon;timestamp;P1;durP1;ratioP1;P2;durP2;ratioP2
21593;SDS011;10959;51.328;7.322;2022-11-15T00:00:00;9.03;;;7.27;;
21593;SDS011;10959;51.328;7.322;2022-11-15T00:02:27;7.67;;;6.50;;
21593;SDS011;10959;51.328;7.322;2022-11-15T00:04:53;10.37;;;7.13;;
21593;SDS011;10959;51.328;7.322;2022-11-15T00:07:21;8.67;;;7.80;;
21593;SDS011;10959;51.328;7.322;2022-11-15T00:09:47;8.43;;;7.47;;
21593;SDS011;10959;51.328;7.322;2022-11-15T00:12:14;10.50;;;6.83;;
21593;SDS011;10959;51.328;7.322;2022-11-15T00:14:40;9.23;;;7.43;;
21593;SDS011;10959;51.328;7.322;2022-11-15T00:17:07;7.07;;;6.37;;
21593;SDS011;10959;51.328;7.322;2022-11-15T00:19:33;10.20;;;7.57;;
21593;SDS011;10959;51.328;7.322;2022-11-15T00:21:59;8.87;;;7.70;;
21593;SDS011;10959;51.328;7.322;2022-11-15T00:24:27;9.47;;;7.73;;
21593;SDS011;10959;51.328;7.322;2022-11-15T00:26:54;9.10;;;7.80;;
21593;SDS011;10959;51.328;7.322;2022-11-15T00:29:20;8.30;;;7.47;;
21593;SDS011;10959;51.328;7.322;2022-11-15T00:31:47;8.73;;;7.07;;
21593;SDS011;10959;51.328;7.322;2022-11-15T00:34:14;8.67;;;7.30;;
21593;SDS011;10959;51.328;7.322;2022-11-15T00:36:40;9.97;;;7.53;;
21593;SDS011;10959;51.328;7.322;2022-11-15T00:39:07;8.00;;;7.20;;
21593;SDS011;10959;51.328;7.322;2022-11-15T00:41:35;8.73;;;7.50;;
21593;SDS011;10959;51.328;7.322;2022-11-15T00:44:01;8.17;;;7.37;;
21593;SDS011;10959;51.328;7.322;2022-11-15T00:46:27;8.63;;;7.20;;
21593;SDS011;10959;51.328;7.322;2022-11-15T00:48:54;10.03;;;7.20;;
21593;SDS011;10959;51.328;7.322;2022-11-15T00:51:20;10.63;;;7.30;;
21593;SDS011;10959;51.328;7.322;2022-11-15T00:53:47;7.10;;;6.20;;
21593;SDS011;10959;51.328;7.322;2022-11-15T00:56:13;8.47;;;7.47;;
21593;SDS011;10959;51.328;7.322;2022-11-15T00:58:41;9.40;;;6.90;;
21593;SDS011;10959;51.328;7.322;2022-11-15T01:01:08;9.97;;;6.93;;
21593;SDS011;10959;51.328;7.322;2022-11-15T01:03:36;9.57;;;8.00;;
21593;SDS011;10959;51.328;7.322;2022-11-15T01:06:03;10.23;;;7.10;;
21593;SDS011;10959;51.328;7.322;2022-11-15T01:08:30;8.27;;;6.87;;
21593;SDS011;10959;51.328;7.322;2022-11-15T01:10:59;8.00;;;6.80;;
21593;SDS011;10959;51.328;7.322;2022-11-15T01:13:28;8.13;;;7.23;;
21593;SDS011;10959;51.328;7.322;2022-11-15T01:15:57;8.30;;;6.93;;
21593;SDS011;10959;51.328;7.322;2022-11-15T01:18:24;7.80;;;7.00;;
21593;SDS011;10959;51.328;7.322;2022-11-15T01:20:51;7.60;;;6.57;;
21593;SDS011;10959;51.328;7.322;2022-11-15T01:23:17;9.23;;;7.30;;
21593;SDS011;10959;51.328;7.322;2022-11-15T01:25:44;9.33;;;6.67;;
21593;SDS011;10959;51.328;7.322;2022-11-15T01:28:10;8.13;;;6.87;;
21593;SDS011;10959;51.328;7.322;2022-11-15T01:30:37;9.00;;;7.47;;
21593;SDS011;10959;51.328;7.322;2022-11-15T01:33:05;8.60;;;7.43;;
21593;SDS011;10959;51.328;7.322;2022-11-15T01:35:31;10.20;;;7.20;;
21593;SDS011;10959;51.328;7.322;2022-11-15T01:37:57;11.37;;;7.80;;
21593;SDS011;10959;51.328;7.322;2022-11-15T01:40:24;8.20;;;7.07;;
21593;SDS011;10959;51.328;7.322;2022-11-15T01:42:50;8.00;;;6.57;;
21593;SDS011;10959;51.328;7.322;2022-11-15T01:45:17;7.07;;;6.37;;
21593;SDS011;10959;51.328;7.322;2022-11-15T01:47:44;6.87;;;6.17;;
21593;SDS011;10959;51.328;7.322;2022-11-15T01:50:15;8.43;;;6.83;;
21593;SDS011;10959;51.328;7.322;2022-11-15T01:52:46;10.00;;;7.43;;
21593;SDS011;10959;51.328;7.322;2022-11-15T01:55:14;8.10;;;7.30;;
21593;SDS011;10959;51.328;7.322;2022-11-15T01:57:45;7.70;;;6.53;;
21593;SDS011;10959;51.328;7.322;2022-11-15T02:00:14;10.47;;;7.87;;
21593;SDS011;10959;51.328;7.322;2022-11-15T02:02:41;9.43;;;6.50;;
21593;SDS011;10959;51.328;7.322;2022-11-15T02:05:09;7.30;;;6.53;;
21593;SDS011;10959;51.328;7.322;2022-11-15T02:07:37;8.67;;;6.93;;
21593;SDS011;10959;51.328;7.322;2022-11-15T02:10:06;8.47;;;7.40;;
21593;SDS011;10959;51.328;7.322;2022-11-15T02:12:35;8.07;;;7.27;;
21593;SDS011;10959;51.328;7.322;2022-11-15T02:15:02;7.73;;;7.03;;
21593;SDS011;10959;51.328;7.322;2022-11-15T02:17:50;8.60;;;7.03;;
21593;SDS011;10959;51.328;7.322;2022-11-15T02:20:31;8.97;;;7.90;;
21593;SDS011;10959;51.328;7.322;2022-11-15T02:23:31;8.20;;;7.20;;
21593;SDS011;10959;51.328;7.322;2022-11-15T02:26:38;11.97;;;7.93;;
21593;SDS011;10959;51.328;7.322;2022-11-15T02:29:23;9.10;;;8.20;;
21593;SDS011;10959;51.328;7.322;2022-11-15T02:32:05;9.10;;;6.73;;
21593;SDS011;10959;51.328;7.322;2022-11-15T02:34:40;10.33;;;8.80;;
21593;SDS011;10959;51.328;7.322;2022-11-15T02:37:16;10.83;;;7.90;;
21593;SDS011;10959;51.328;7.322;2022-11-15T02:39:50;10.47;;;8.70;;
21593;SDS011;10959;51.328;7.322;2022-11-15T02:42:24;10.33;;;8.57;;
21593;SDS011;10959;51.328;7.322;2022-11-15T02:45:11;9.30;;;8.40;;
21593;SDS011;10959;51.328;7.322;2022-11-15T02:47:45;8.77;;;7.30;;
21593;SDS011;10959;51.328;7.322;2022-11-15T02:50:16;9.80;;;7.47;;
21593;SDS011;10959;51.328;7.322;2022-11-15T02:52:45;9.10;;;7.43;;
21593;SDS011;10959;51.328;7.322;2022-11-15T02:55:24;10.13;;;7.60;;
21593;SDS011;10959;51.328;7.322;2022-11-15T02:57:55;10.80;;;7.30;;
21593;SDS011;10959;51.328;7.322;2022-11-15T03:00:34;10.97;;;7.40;;
21593;SDS011;10959;51.328;7.322;2022-11-15T03:06:09;7.87;;;7.03;;
21593;SDS011;10959;51.328;7.322;2022-11-15T03:08:47;8.53;;;7.47;;
21593;SDS011;10959;51.328;7.322;2022-11-15T03:11:21;9.83;;;6.90;;
21593;SDS011;10959;51.328;7.322;2022-11-15T03:13:53;8.93;;;7.33;;
21593;SDS011;10959;51.328;7.322;2022-11-15T03:16:25;8.03;;;7.23;;
21593;SDS011;10959;51.328;7.322;2022-11-15T03:18:57;8.20;;;6.77;;
21593;SDS011;10959;51.328;7.322;2022-11-15T03:21:25;8.70;;;7.80;;
21593;SDS011;10959;51.328;7.322;2022-11-15T03:23:55;9.97;;;7.27;;
21593;SDS011;10959;51.328;7.322;2022-11-15T03:26:28;10.10;;;7.50;;
21593;SDS011;10959;51.328;7.322;2022-11-15T03:28:56;9.37;;;6.83;;
21593;SDS011;10959;51.328;7.322;2022-11-15T03:31:28;8.33;;;6.30;;
21593;SDS011;10959;51.328;7.322;2022-11-15T03:34:15;8.13;;;7.33;;
21593;SDS011;10959;51.328;7.322;2022-11-15T03:36:48;7.60;;;5.90;;
21593;SDS011;10959;51.328;7.322;2022-11-15T03:39:17;6.97;;;6.27;;
21593;SDS011;10959;51.328;7.322;2022-11-15T03:41:45;8.37;;;7.57;;
21593;SDS011;10959;51.328;7.322;2022-11-15T03:44:18;8.20;;;7.03;;
21593;SDS011;10959;51.328;7.322;2022-11-15T03:46:58;7.83;;;7.00;;
21593;SDS011;10959;51.328;7.322;2022-11-15T03:49:31;7.53;;;6.67;;
21593;SDS011;10959;51.328;7.322;2022-11-15T03:52:00;6.80;;;6.13;;
21593;SDS011;10959;51.328;7.322;2022-11-15T03:54:27;6.93;;;6.03;;
21593;SDS011;10959;51.328;7.322;2022-11-15T03:56:54;7.90;;;7.00;;
21593;SDS011;10959;51.328;7.322;2022-11-15T03:59:20;7.23;;;6.53;;
21593;SDS011;10959;51.328;7.322;2022-11-15T04:01:47;7.73;;;6.30;;
21593;SDS011;10959;51.328;7.322;2022-11-15T04:04:14;7.23;;;6.17;;
21593;SDS011;10959;51.328;7.322;2022-11-15T04:06:42;6.93;;;6.20;;
21593;SDS011;10959;51.328;7.322;2022-11-15T04:09:08;6.80;;;6.07;;
21593;SDS011;10959;51.328;7.322;2022-11-15T04:11:35;7.33;;;6.57;;
21593;SDS011;10959;51.328;7.322;2022-11-15T04:14:01;7.10;;;6.40;;
21593;SDS011;10959;51.328;7.322;2022-11-15T04:16:28;7.77;;;6.80;;
21593;SDS011;10959;51.328;7.322;2022-11-15T04:18:54;7.20;;;6.50;;
21593;SDS011;10959;51.328;7.322;2022-11-15T04:21:35;7.90;;;6.37;;
21593;SDS011;10959;51.328;7.322;2022-11-15T04:24:20;7.40;;;6.70;;
21593;SDS011;10959;51.328;7.322;2022-11-15T04:26:46;7.77;;;6.87;;
21593;SDS011;10959;51.328;7.322;2022-11-15T04:29:13;7.67;;;6.87;;
21593;SDS011;10959;51.328;7.322;2022-11-15T04:31:57;7.77;;;7.07;;
21593;SDS011;10959;51.328;7.322;2022-11-15T04:34:23;8.43;;;7.70;;
21593;SDS011;10959;51.328;7.322;2022-11-15T04:36:51;7.93;;;7.23;;
21593;SDS011;10959;51.328;7.322;2022-11-15T04:39:36;8.70;;;8.00;;
21593;SDS011;10959;51.328;7.322;2022-11-15T04:42:02;8.97;;;6.90;;
21593;SDS011;10959;51.328;7.322;2022-11-15T04:44:29;8.00;;;7.30;;
21593;SDS011;10959;51.328;7.322;2022-11-15T04:46:56;8.97;;;7.77;;
21593;SDS011;10959;51.328;7.322;2022-11-15T04:49:22;8.47;;;7.67;;
21593;SDS011;10959;51.328;7.322;2022-11-15T04:51:49;7.53;;;6.83;;
21593;SDS011;10959;51.328;7.322;2022-11-15T04:54:15;8.73;;;7.53;;
21593;SDS011;10959;51.328;7.322;2022-11-15T04:56:43;8.20;;;7.50;;
21593;SDS011;10959;51.328;7.322;2022-11-15T04:59:09;8.00;;;7.30;;
21593;SDS011;10959;51.328;7.322;2022-11-15T05:01:36;6.63;;;6.03;;
21593;SDS011;10959;51.328;7.322;2022-11-15T05:04:02;6.80;;;6.20;;
21593;SDS011;10959;51.328;7.322;2022-11-15T05:06:47;7.67;;;6.73;;
21593;SDS011;10959;51.328;7.322;2022-11-15T05:09:15;7.37;;;6.67;;
21593;SDS011;10959;51.328;7.322;2022-11-15T05:11:43;7.00;;;6.30;;
21593;SDS011;10959;51.328;7.322;2022-11-15T05:14:10;7.33;;;6.63;;
21593;SDS011;10959;51.328;7.322;2022-11-15T05:16:36;7.13;;;6.37;;
21593;SDS011;10959;51.328;7.322;2022-11-15T05:19:03;7.80;;;7.10;;
21593;SDS011;10959;51.328;7.322;2022-11-15T05:21:31;7.60;;;6.60;;
21593;SDS011;10959;51.328;7.322;2022-11-15T05:23:58;8.17;;;7.37;;
21593;SDS011;10959;51.328;7.322;2022-11-15T05:26:24;8.20;;;7.40;;
21593;SDS011;10959;51.328;7.322;2022-11-15T05:28:53;7.40;;;6.70;;
21593;SDS011;10959;51.328;7.322;2022-11-15T05:31:20;7.23;;;6.53;;
21593;SDS011;10959;51.328;7.322;2022-11-15T05:33:48;6.93;;;6.27;;
21593;SDS011;10959;51.328;7.322;2022-11-15T05:36:16;6.27;;;5.67;;
21593;SDS011;10959;51.328;7.322;2022-11-15T05:38:46;7.20;;;6.00;;
21593;SDS011;10959;51.328;7.322;2022-11-15T05:41:14;7.57;;;6.87;;
21593;SDS011;10959;51.328;7.322;2022-11-15T05:43:42;7.30;;;6.60;;
21593;SDS011;10959;51.328;7.322;2022-11-15T05:46:12;6.87;;;6.13;;
21593;SDS011;10959;51.328;7.322;2022-11-15T05:48:40;6.33;;;5.73;;
21593;SDS011;10959;51.328;7.322;2022-11-15T05:51:09;7.73;;;6.03;;
21593;SDS011;10959;51.328;7.322;2022-11-15T05:53:35;5.67;;;5.10;;
21593;SDS011;10959;51.328;7.322;2022-11-15T05:56:03;6.40;;;5.40;;
21593;SDS011;10959;51.328;7.322;2022-11-15T05:58:31;5.90;;;5.30;;
21593;SDS011;10959;51.328;7.322;2022-11-15T06:00:58;6.37;;;5.37;;
21593;SDS011;10959;51.328;7.322;2022-11-15T06:03:26;6.20;;;5.60;;
21593;SDS011;10959;51.328;7.322;2022-11-15T06:05:53;5.63;;;5.13;;
21593;SDS011;10959;51.328;7.322;2022-11-15T06:08:19;5.27;;;4.67;;
21593;SDS011;10959;51.328;7.322;2022-11-15T06:10:46;6.33;;;5.20;;
21593;SDS011;10959;51.328;7.322;2022-11-15T06:13:12;5.60;;;5.10;;
21593;SDS011;10959;51.328;7.322;2022-11-15T06:15:39;5.23;;;4.73;;
21593;SDS011;10959;51.328;7.322;2022-11-15T06:18:05;4.50;;;4.10;;
21593;SDS011;10959;51.328;7.322;2022-11-15T06:20:33;4.47;;;4.07;;
21593;SDS011;10959;51.328;7.322;2022-11-15T06:23:00;4.20;;;3.80;;
21593;SDS011;10959;51.328;7.322;2022-11-15T06:25:29;3.83;;;3.43;;
21593;SDS011;10959;51.328;7.322;2022-11-15T06:27:56;3.53;;;3.10;;
21593;SDS011;10959;51.328;7.322;2022-11-15T06:30:25;4.67;;;3.90;;
21593;SDS011;10959;51.328;7.322;2022-11-15T06:32:52;5.03;;;3.40;;
21593;SDS011;10959;51.328;7.322;2022-11-15T06:35:24;5.00;;;3.93;;
21593;SDS011;10959;51.328;7.322;2022-11-15T06:37:52;4.50;;;4.07;;
21593;SDS011;10959;51.328;7.322;2022-11-15T06:40:18;3.83;;;3.40;;
21593;SDS011;10959;51.328;7.322;2022-11-15T06:42:45;4.13;;;3.83;;
21593;SDS011;10959;51.328;7.322;2022-11-15T06:45:11;3.37;;;3.07;;
21593;SDS011;10959;51.328;7.322;2022-11-15T06:47:43;4.23;;;3.20;;
21593;SDS011;10959;51.328;7.322;2022-11-15T06:50:10;4.50;;;3.40;;
21593;SDS011;10959;51.328;7.322;2022-11-15T06:52:37;3.60;;;3.30;;
21593;SDS011;10959;51.328;7.322;2022-11-15T06:55:05;4.20;;;2.83;;
21593;SDS011;10959;51.328;7.322;2022-11-15T06:57:32;2.53;;;2.33;;
21593;SDS011;10959;51.328;7.322;2022-11-15T06:59:59;2.87;;;2.67;;
21593;SDS011;10959;51.328;7.322;2022-11-15T07:02:25;2.80;;;2.50;;
21593;SDS011;10959;51.328;7.322;2022-11-15T07:04:52;2.67;;;2.47;;
21593;SDS011;10959;51.328;7.322;2022-11-15T07:07:18;3.20;;;2.43;;
21593;SDS011;10959;51.328;7.322;2022-11-15T07:09:45;3.70;;;2.47;;
21593;SDS011;10959;51.328;7.322;2022-11-15T07:12:12;2.87;;;2.10;;
21593;SDS011;10959;51.328;7.322;2022-11-15T07:14:39;4.40;;;2.33;;
21593;SDS011;10959;51.328;7.322;2022-11-15T07:17:05;2.30;;;2.10;;
21593;SDS011;10959;51.328;7.322;2022-11-15T07:19:32;2.57;;;2.37;;
21593;SDS011;10959;51.328;7.322;2022-11-15T07:21:58;2.17;;;1.97;;
21593;SDS011;10959;51.328;7.322;2022-11-15T07:24:24;2.30;;;2.10;;
21593;SDS011;10959;51.328;7.322;2022-11-15T07:26:51;5.60;;;2.47;;
21593;SDS011;10959;51.328;7.322;2022-11-15T07:29:19;2.80;;;2.47;;
21593;SDS011;10959;51.328;7.322;2022-11-15T07:31:45;2.70;;;2.50;;
21593;SDS011;10959;51.328;7.322;2022-11-15T07:34:11;3.60;;;2.40;;
21593;SDS011;10959;51.328;7.322;2022-11-15T07:36:38;2.53;;;2.27;;
21593;SDS011;10959;51.328;7.322;2022-11-15T07:39:04;2.27;;;1.97;;
21593;SDS011;10959;51.328;7.322;2022-11-15T07:41:31;3.03;;;2.43;;
21593;SDS011;10959;51.328;7.322;2022-11-15T07:43:57;3.93;;;2.07;;
21593;SDS011;10959;51.328;7.322;2022-11-15T07:46:25;2.40;;;2.20;;
21593;SDS011;10959;51.328;7.322;2022-11-15T07:48:51;3.53;;;2.17;;
21593;SDS011;10959;51.328;7.322;2022-11-15T07:51:18;2.70;;;2.30;;
21593;SDS011;10959;51.328;7.322;2022-11-15T07:53:44;1.77;;;1.67;;
21593;SDS011;10959;51.328;7.322;2022-11-15T07:56:11;2.77;;;1.90;;
21593;SDS011;10959;51.328;7.322;2022-11-15T07:58:38;3.73;;;2.10;;
21593;SDS011;10959;51.328;7.322;2022-11-15T08:01:04;2.33;;;2.10;;
21593;SDS011;10959;51.328;7.322;2022-11-15T08:03:33;2.57;;;2.33;;
21593;SDS011;10959;51.328;7.322;2022-11-15T08:05:59;2.70;;;1.93;;
21593;SDS011;10959;51.328;7.322;2022-11-15T08:08:26;2.73;;;2.30;;
21593;SDS011;10959;51.328;7.322;2022-11-15T08:10:52;2.77;;;2.40;;
21593;SDS011;10959;51.328;7.322;2022-11-15T08:13:19;3.73;;;2.10;;
21593;SDS011;10959;51.328;7.322;2022-11-15T08:15:46;2.27;;;2.07;;
21593;SDS011;10959;51.328;7.322;2022-11-15T08:18:13;2.47;;;1.90;;
21593;SDS011;10959;51.328;7.322;2022-11-15T08:20:42;2.87;;;1.80;;
21593;SDS011;10959;51.328;7.322;2022-11-15T08:23:10;1.93;;;1.73;;
21593;SDS011;10959;51.328;7.322;2022-11-15T08:25:37;2.00;;;1.80;;
21593;SDS011;10959;51.328;7.322;2022-11-15T08:28:05;2.47;;;1.80;;
21593;SDS011;10959;51.328;7.322;2022-11-15T08:30:34;3.03;;;1.70;;
21593;SDS011;10959;51.328;7.322;2022-11-15T08:33:02;2.57;;;1.83;;
21593;SDS011;10959;51.328;7.322;2022-11-15T08:35:29;1.73;;;1.60;;
21593;SDS011;10959;51.328;7.322;2022-11-15T08:37:57;1.77;;;1.60;;
21593;SDS011;10959;51.328;7.322;2022-11-15T08:40:24;1.50;;;1.40;;
21593;SDS011;10959;51.328;7.322;2022-11-15T08:42:51;2.53;;;1.73;;
21593;SDS011;10959;51.328;7.322;2022-11-15T08:45:18;2.03;;;1.50;;
21593;SDS011;10959;51.328;7.322;2022-11-15T08:47:44;2.67;;;1.80;;
21593;SDS011;10959;51.328;7.322;2022-11-15T08:50:11;1.37;;;1.27;;
21593;SDS011;10959;51.328;7.322;2022-11-15T08:52:37;1.93;;;1.50;;
21593;SDS011;10959;51.328;7.322;2022-11-15T08:55:06;2.03;;;1.37;;
21593;SDS011;10959;51.328;7.322;2022-11-15T08:57:33;2.13;;;1.40;;
21593;SDS011;10959;51.328;7.322;2022-11-15T09:00:00;3.13;;;1.47;;
21593;SDS011;10959;51.328;7.322;2022-11-15T09:02:27;1.67;;;1.37;;
21593;SDS011;10959;51.328;7.322;2022-11-15T09:04:53;1.57;;;1.40;;
21593;SDS011;10959;51.328;7.322;2022-11-15T09:07:20;2.53;;;1.60;;
21593;SDS011;10959;51.328;7.322;2022-11-15T09:09:46;3.73;;;1.80;;
21593;SDS011;10959;51.328;7.322;2022-11-15T09:12:14;1.30;;;1.20;;
21593;SDS011;10959;51.328;7.322;2022-11-15T09:14:40;1.57;;;1.30;;
21593;SDS011;10959;51.328;7.322;2022-11-15T09:17:07;1.43;;;1.20;;
21593;SDS011;10959;51.328;7.322;2022-11-15T09:19:34;1.13;;;1.00;;
21593;SDS011;10959;51.328;7.322;2022-11-15T09:22:01;1.77;;;1.30;;
21593;SDS011;10959;51.328;7.322;2022-11-15T09:24:31;2.40;;;1.10;;
21593;SDS011;10959;51.328;7.322;2022-11-15T09:26:57;1.07;;;0.90;;
21593;SDS011;10959;51.328;7.322;2022-11-15T09:29:25;1.37;;;1.07;;
21593;SDS011;10959;51.328;7.322;2022-11-15T09:31:51;1.70;;;1.20;;
21593;SDS011;10959;51.328;7.322;2022-11-15T09:34:18;2.57;;;1.40;;
21593;SDS011;10959;51.328;7.322;2022-11-15T09:36:45;3.30;;;1.30;;
21593;SDS011;10959;51.328;7.322;2022-11-15T09:39:12;2.17;;;1.40;;
21593;SDS011;10959;51.328;7.322;2022-11-15T09:44:37;1.40;;;1.17;;
21593;SDS011;10959;51.328;7.322;2022-11-15T09:47:27;1.10;;;0.90;;
21593;SDS011;10959;51.328;7.322;2022-11-15T09:50:08;1.20;;;0.90;;
21593;SDS011;10959;51.328;7.322;2022-11-15T09:52:37;2.47;;;1.37;;
21593;SDS011;10959;51.328;7.322;2022-11-15T09:55:07;1.70;;;1.17;;
21593;SDS011;10959;51.328;7.322;2022-11-15T09:57:37;1.00;;;0.90;;
21593;SDS011;10959;51.328;7.322;2022-11-15T10:02:46;2.37;;;1.10;;
21593;SDS011;10959;51.328;7.322;2022-11-15T10:05:28;1.40;;;0.83;;
21593;SDS011;10959;51.328;7.322;2022-11-15T10:07:56;1.07;;;0.70;;
21593;SDS011;10959;51.328;7.322;2022-11-15T10:10:29;1.97;;;1.20;;
21593;SDS011;10959;51.328;7.322;2022-11-15T10:13:01;2.50;;;0.90;;
21593;SDS011;10959;51.328;7.322;2022-11-15T10:15:29;1.10;;;0.77;;
21593;SDS011;10959;51.328;7.322;2022-11-15T10:18:01;1.70;;;1.10;;
21593;SDS011;10959;51.328;7.322;2022-11-15T10:20:33;1.23;;;0.80;;
21593;SDS011;10959;51.328;7.322;2022-11-15T10:23:05;1.40;;;0.90;;
21593;SDS011;10959;51.328;7.322;2022-11-15T10:25:36;0.90;;;0.77;;
21593;SDS011;10959;51.328;7.322;2022-11-15T10:28:06;0.90;;;0.80;;
21593;SDS011;10959;51.328;7.322;2022-11-15T10:30:41;2.43;;;1.10;;
21593;SDS011;10959;51.328;7.322;2022-11-15T10:33:14;0.90;;;0.80;;
21593;SDS011;10959;51.328;7.322;2022-11-15T10:35:48;0.90;;;0.80;;
21593;SDS011;10959;51.328;7.322;2022-11-15T10:38:45;2.50;;;0.87;;
21593;SDS011;10959;51.328;7.322;2022-11-15T10:41:19;1.47;;;1.10;;
21593;SDS011;10959;51.328;7.322;2022-11-15T10:44:00;2.20;;;0.90;;
21593;SDS011;10959;51.328;7.322;2022-11-15T10:46:34;1.33;;;1.07;;
21593;SDS011;10959;51.328;7.322;2022-11-15T10:49:11;1.37;;;0.67;;
21593;SDS011;10959;51.328;7.322;2022-11-15T10:51:41;1.40;;;0.90;;
21593;SDS011;10959;51.328;7.322;2022-11-15T10:54:12;1.13;;;0.70;;
21593;SDS011;10959;51.328;7.322;2022-11-15T10:56:48;1.57;;;0.77;;
21593;SDS011;10959;51.328;7.322;2022-11-15T10:59:21;2.10;;;1.03;;
21593;SDS011;10959;51.328;7.322;2022-11-15T11:01:51;1.17;;;0.93;;
21593;SDS011;10959;51.328;7.322;2022-11-15T11:04:18;2.80;;;0.80;;
21593;SDS011;10959;51.328;7.322;2022-11-15T11:06:48;1.60;;;1.03;;
21593;SDS011;10959;51.328;7.322;2022-11-15T11:09:27;1.60;;;1.20;;
21593;SDS011;10959;51.328;7.322;2022-11-15T11:11:56;1.87;;;0.70;;
21593;SDS011;10959;51.328;7.322;2022-11-15T11:14:23;2.43;;;0.70;;
21593;SDS011;10959;51.328;7.322;2022-11-15T11:16:52;1.23;;;0.60;;
21593;SDS011;10959;51.328;7.322;2022-11-15T11:19:33;1.23;;;0.80;;
21593;SDS011;10959;51.328;7.322;2022-11-15T11:22:09;0.90;;;0.67;;
21593;SDS011;10959;51.328;7.322;2022-11-15T11:24:44;1.17;;;0.70;;
21593;SDS011;10959;51.328;7.322;2022-11-15T11:27:19;1.97;;;0.70;;
21593;SDS011;10959;51.328;7.322;2022-11-15T11:30:02;1.63;;;0.70;;
21593;SDS011;10959;51.328;7.322;2022-11-15T11:32:36;2.80;;;0.80;;
21593;SDS011;10959;51.328;7.322;2022-11-15T11:35:17;1.23;;;0.60;;
21593;SDS011;10959;51.328;7.322;2022-11-15T11:37:49;2.20;;;0.60;;
21593;SDS011;10959;51.328;7.322;2022-11-15T11:40:28;1.00;;;0.70;;
21593;SDS011;10959;51.328;7.322;2022-11-15T11:42:58;1.20;;;0.70;;
21593;SDS011;10959;51.328;7.322;2022-11-15T11:45:39;1.03;;;0.50;;
21593;SDS011;10959;51.328;7.322;2022-11-15T11:48:21;1.63;;;0.60;;
21593;SDS011;10959;51.328;7.322;2022-11-15T11:50:55;1.10;;;0.40;;
21593;SDS011;10959;51.328;7.322;2022-11-15T11:53:29;1.40;;;0.60;;
21593;SDS011;10959;51.328;7.322;2022-11-15T11:56:04;1.33;;;0.60;;
21593;SDS011;10959;51.328;7.322;2022-11-15T11:58:41;1.70;;;0.70;;
21593;SDS011;10959;51.328;7.322;2022-11-15T12:01:12;1.37;;;0.70;;
21593;SDS011;10959;51.328;7.322;2022-11-15T12:03:43;1.60;;;0.70;;
21593;SDS011;10959;51.328;7.322;2022-11-15T12:06:14;3.00;;;0.70;;
21593;SDS011;10959;51.328;7.322;2022-11-15T12:08:50;0.83;;;0.60;;
21593;SDS011;10959;51.328;7.322;2022-11-15T12:11:21;0.70;;;0.60;;
21593;SDS011;10959;51.328;7.322;2022-11-15T12:13:56;1.23;;;0.70;;
21593;SDS011;10959;51.328;7.322;2022-11-15T12:16:27;3.37;;;0.70;;
21593;SDS011;10959;51.328;7.322;2022-11-15T12:18:55;1.60;;;0.50;;
21593;SDS011;10959;51.328;7.322;2022-11-15T12:21:27;2.40;;;0.90;;
21593;SDS011;10959;51.328;7.322;2022-11-15T12:24:02;1.37;;;0.63;;
21593;SDS011;10959;51.328;7.322;2022-11-15T12:26:34;1.33;;;0.77;;
21593;SDS011;10959;51.328;7.322;2022-11-15T12:29:09;3.10;;;1.03;;
21593;SDS011;10959;51.328;7.322;2022-11-15T12:31:41;1.20;;;0.60;;
21593;SDS011;10959;51.328;7.322;2022-11-15T12:34:15;2.00;;;0.73;;
21593;SDS011;10959;51.328;7.322;2022-11-15T12:36:59;2.33;;;0.63;;
21593;SDS011;10959;51.328;7.322;2022-11-15T12:42:39;2.27;;;0.70;;
21593;SDS011;10959;51.328;7.322;2022-11-15T12:45:23;1.03;;;0.53;;
21593;SDS011;10959;51.328;7.322;2022-11-15T12:47:51;1.83;;;1.00;;
21593;SDS011;10959;51.328;7.322;2022-11-15T12:50:32;1.43;;;0.67;;
21593;SDS011;10959;51.328;7.322;2022-11-15T12:53:29;2.07;;;0.80;;
21593;SDS011;10959;51.328;7.322;2022-11-15T12:58:48;1.87;;;0.97;;
21593;SDS011;10959;51.328;7.322;2022-11-15T13:04:22;1.80;;;0.63;;
21593;SDS011;10959;51.328;7.322;2022-11-15T13:06:51;1.60;;;0.70;;
21593;SDS011;10959;51.328;7.322;2022-11-15T13:15:32;1.90;;;0.83;;
21593;SDS011;10959;51.328;7.322;2022-11-15T13:20:59;2.60;;;0.77;;
21593;SDS011;10959;51.328;7.322;2022-11-15T13:23:52;1.40;;;0.60;;
21593;SDS011;10959;51.328;7.322;2022-11-15T13:26:19;1.07;;;0.70;;
21593;SDS011;10959;51.328;7.322;2022-11-15T13:28:47;1.37;;;0.60;;
21593;SDS011;10959;51.328;7.322;2022-11-15T13:31:29;1.07;;;0.70;;
21593;SDS011;10959;51.328;7.322;2022-11-15T13:34:01;1.60;;;0.80;;
21593;SDS011;10959;51.328;7.322;2022-11-15T13:36:30;1.33;;;0.60;;
21593;SDS011;10959;51.328;7.322;2022-11-15T13:39:00;2.70;;;0.90;;
21593;SDS011;10959;51.328;7.322;2022-11-15T13:41:29;1.20;;;0.83;;
21593;SDS011;10959;51.328;7.322;2022-11-15T13:43:57;1.40;;;0.90;;
21593;SDS011;10959;51.328;7.322;2022-11-15T13:46:25;2.17;;;1.10;;
21593;SDS011;10959;51.328;7.322;2022-11-15T13:48:55;1.77;;;0.97;;
21593;SDS011;10959;51.328;7.322;2022-11-15T13:51:26;1.87;;;1.10;;
21593;SDS011;10959;51.328;7.322;2022-11-15T13:54:00;1.90;;;1.07;;
21593;SDS011;10959;51.328;7.322;2022-11-15T13:56:29;1.47;;;1.13;;
21593;SDS011;10959;51.328;7.322;2022-11-15T13:58:59;2.10;;;1.10;;
21593;SDS011;10959;51.328;7.322;2022-11-15T14:01:26;2.77;;;1.30;;
21593;SDS011;10959;51.328;7.322;2022-11-15T14:03:59;1.30;;;1.00;;
21593;SDS011;10959;51.328;7.322;2022-11-15T14:06:28;2.53;;;1.10;;
21593;SDS011;10959;51.328;7.322;2022-11-15T14:09:01;2.23;;;1.20;;
21593;SDS011;10959;51.328;7.322;2022-11-15T14:11:29;3.23;;;1.30;;
21593;SDS011;10959;51.328;7.322;2022-11-15T14:14:03;1.87;;;1.47;;
21593;SDS011;10959;51.328;7.322;2022-11-15T14:16:39;1.70;;;1.30;;
21593;SDS011;10959;51.328;7.322;2022-11-15T14:19:10;2.10;;;1.30;;
21593;SDS011;10959;51.328;7.322;2022-11-15T14:21:48;2.27;;;1.30;;
21593;SDS011;10959;51.328;7.322;2022-11-15T14:24:34;2.00;;;1.37;;
21593;SDS011;10959;51.328;7.322;2022-11-15T14:27:15;2.07;;;1.10;;
21593;SDS011;10959;51.328;7.322;2022-11-15T14:29:43;2.07;;;1.40;;
21593;SDS011;10959;51.328;7.322;2022-11-15T14:32:11;2.10;;;1.60;;
21593;SDS011;10959;51.328;7.322;2022-11-15T14:34:41;2.20;;;1.50;;
21593;SDS011;10959;51.328;7.322;2022-11-15T14:37:11;2.67;;;1.63;;
21593;SDS011;10959;51.328;7.322;2022-11-15T14:39:45;3.00;;;1.20;;
21593;SDS011;10959;51.328;7.322;2022-11-15T14:42:11;1.73;;;1.30;;
21593;SDS011;10959;51.328;7.322;2022-11-15T14:44:37;3.00;;;1.60;;
21593;SDS011;10959;51.328;7.322;2022-11-15T14:47:04;3.17;;;1.30;;
21593;SDS011;10959;51.328;7.322;2022-11-15T14:49:30;1.97;;;1.20;;
21593;SDS011;10959;51.328;7.322;2022-11-15T14:51:58;1.97;;;1.43;;
21593;SDS011;10959;51.328;7.322;2022-11-15T14:54:24;3.73;;;1.40;;
21593;SDS011;10959;51.328;7.322;2022-11-15T14:56:51;3.13;;;1.50;;
21593;SDS011;10959;51.328;7.322;2022-11-15T14:59:17;2.23;;;1.23;;
21593;SDS011;10959;51.328;7.322;2022-11-15T15:01:43;2.60;;;1.40;;
21593;SDS011;10959;51.328;7.322;2022-11-15T15:04:10;2.13;;;1.40;;
21593;SDS011;10959;51.328;7.322;2022-11-15T15:06:36;1.70;;;1.30;;
21593;SDS011;10959;51.328;7.322;2022-11-15T15:09:04;2.90;;;1.27;;
21593;SDS011;10959;51.328;7.322;2022-11-15T15:11:31;2.13;;;1.20;;
21593;SDS011;10959;51.328;7.322;2022-11-15T15:13:57;2.10;;;1.30;;
21593;SDS011;10959;51.328;7.322;2022-11-15T15:16:26;1.70;;;1.20;;
21593;SDS011;10959;51.328;7.322;2022-11-15T15:18:53;1.93;;;1.40;;
21593;SDS011;10959;51.328;7.322;2022-11-15T15:21:20;2.60;;;1.33;;
21593;SDS011;10959;51.328;7.322;2022-11-15T15:23:48;3.30;;;1.60;;
21593;SDS011;10959;51.328;7.322;2022-11-15T15:26:16;2.37;;;1.50;;
21593;SDS011;10959;51.328;7.322;2022-11-15T15:28:43;1.83;;;1.17;;
21593;SDS011;10959;51.328;7.322;2022-11-15T15:31:09;2.33;;;1.50;;